createdAt,value
2018-01-12T00:00:12.829Z,87
2018-01-12T00:01:15.228Z,87.2
2018-01-12T00:02:17.640Z,87.1
2018-01-12T00:03:20.349Z,87.3
2018-01-12T00:04:22.747Z,87.3
2018-01-12T00:05:25.153Z,87.4
2018-01-12T00:06:27.848Z,87.6
2018-01-12T00:07:30.547Z,87.6
2018-01-12T00:08:32.951Z,87.5
2018-01-12T00:09:35.648Z,87.6
2018-01-12T00:10:38.057Z,87.6
2018-01-12T00:11:40.481Z,87.5
2018-01-12T00:12:43.172Z,87.5
2018-01-12T00:13:45.574Z,87.4
2018-01-12T00:14:47.983Z,87.1
2018-01-12T00:15:50.395Z,87.1
2018-01-12T00:16:52.805Z,87.1
2018-01-12T00:17:55.213Z,87.1
2018-01-12T00:18:57.628Z,87.1
2018-01-12T00:20:00.378Z,87
2018-01-12T00:21:02.777Z,87
2018-01-12T00:22:05.196Z,87
2018-01-12T00:23:07.607Z,87
2018-01-12T00:24:10.304Z,87
2018-01-12T00:25:12.710Z,86.8
2018-01-12T00:26:15.400Z,86.6
2018-01-12T00:27:17.809Z,86.6
2018-01-12T00:28:20.509Z,86.4
2018-01-12T00:29:22.915Z,86.3
2018-01-12T00:30:25.317Z,86.4
2018-01-12T00:31:27.732Z,86.4
2018-01-12T00:32:30.147Z,86.5
2018-01-12T00:33:32.564Z,86.4
2018-01-12T00:34:35.278Z,86.5
2018-01-12T00:35:37.679Z,86.6
2018-01-12T00:36:40.385Z,86.6
2018-01-12T00:37:43.073Z,86.5
2018-01-12T00:38:45.486Z,86.5
2018-01-12T00:39:47.897Z,86.4
2018-01-12T00:40:50.301Z,86.4
2018-01-12T00:41:52.711Z,86.5
2018-01-12T00:42:55.134Z,86.4
2018-01-12T00:43:57.531Z,86.4
2018-01-12T00:45:00.519Z,86.3
2018-01-12T00:46:02.930Z,86.2
2018-01-12T00:47:05.334Z,86.2
2018-01-12T00:48:07.752Z,86.3
2018-01-12T00:49:10.169Z,86.3
2018-01-12T00:50:12.864Z,86.3
2018-01-12T00:51:15.276Z,86.4
2018-01-12T00:52:17.682Z,86.5
2018-01-12T00:53:20.091Z,86.7
2018-01-12T00:54:22.507Z,86.7
2018-01-12T00:55:24.915Z,86.8
2018-01-12T00:56:27.328Z,86.9
2018-01-12T00:57:29.738Z,86.9
2018-01-12T00:58:32.156Z,87.1
2018-01-12T00:59:34.574Z,86.8
2018-01-12T01:00:37.266Z,86.8
2018-01-12T01:01:39.681Z,86.7
2018-01-12T01:02:42.087Z,86.9
2018-01-12T01:03:44.486Z,87
2018-01-12T01:04:46.905Z,87
2018-01-12T01:05:49.314Z,87
2018-01-12T01:06:51.724Z,87
2018-01-12T01:07:54.144Z,86.9
2018-01-12T01:08:56.555Z,86.8
2018-01-12T01:09:58.961Z,86.9
2018-01-12T01:11:01.380Z,87
2018-01-12T01:12:03.789Z,87
2018-01-12T01:13:06.205Z,87.1
2018-01-12T01:14:08.613Z,87
2018-01-12T01:15:11.021Z,86.9
2018-01-12T01:16:13.431Z,86.8
2018-01-12T01:17:15.846Z,86.6
2018-01-12T01:18:18.264Z,86.6
2018-01-12T01:19:20.677Z,86.8
2018-01-12T01:20:23.352Z,86.7
2018-01-12T01:21:25.761Z,86.7
2018-01-12T01:22:28.165Z,86.6
2018-01-12T01:23:30.880Z,86.6
2018-01-12T01:24:33.288Z,86.6
2018-01-12T01:25:35.699Z,86.5
2018-01-12T01:26:38.402Z,86.7
2018-01-12T01:27:41.108Z,86.5
2018-01-12T01:28:43.519Z,86.6
2018-01-12T01:29:45.931Z,86.6
2018-01-12T01:30:48.343Z,86.7
2018-01-12T01:31:50.746Z,86.8
2018-01-12T01:32:53.441Z,86.7
2018-01-12T01:33:55.864Z,86.6
2018-01-12T01:34:58.261Z,86.7
2018-01-12T01:36:00.680Z,86.8
2018-01-12T01:37:03.100Z,86.7
2018-01-12T01:38:05.503Z,86.7
2018-01-12T01:39:07.916Z,86.7
2018-01-12T01:40:10.329Z,86.6
2018-01-12T01:41:13.008Z,86.6
2018-01-12T01:42:15.435Z,86.6
2018-01-12T01:43:17.849Z,86.5
2018-01-12T01:44:20.253Z,86.5
2018-01-12T01:45:22.677Z,86.7
2018-01-12T01:46:25.364Z,86.7
2018-01-12T01:47:27.774Z,86.4
2018-01-12T01:48:30.192Z,86.4
2018-01-12T01:49:32.603Z,86.4
2018-01-12T01:50:35.014Z,86.4
2018-01-12T01:51:37.405Z,86.4
2018-01-12T01:52:39.815Z,86.3
2018-01-12T01:53:42.243Z,86.3
2018-01-12T01:54:44.652Z,86.3
2018-01-12T01:55:47.358Z,86.2
2018-01-12T01:56:49.770Z,86.2
2018-01-12T01:57:52.179Z,86.2
2018-01-12T01:58:54.598Z,86.4
2018-01-12T01:59:57.293Z,86.4
2018-01-12T02:00:59.695Z,86.5
2018-01-12T02:02:02.419Z,86.4
2018-01-12T02:03:05.116Z,86.5
2018-01-12T02:04:07.520Z,86.7
2018-01-12T02:05:09.938Z,86.7
2018-01-12T02:06:12.338Z,86.5
2018-01-12T02:07:14.742Z,86.4
2018-01-12T02:08:17.163Z,86.5
2018-01-12T02:09:19.561Z,86.7
2018-01-12T02:10:21.965Z,86.8
2018-01-12T02:11:24.378Z,86.8
2018-01-12T02:12:27.093Z,87
2018-01-12T02:13:29.513Z,87
2018-01-12T02:14:31.927Z,87
2018-01-12T02:15:34.322Z,87.1
2018-01-12T02:16:36.738Z,87.2
2018-01-12T02:17:39.133Z,87.2
2018-01-12T02:18:41.835Z,87.3
2018-01-12T02:19:44.246Z,87.2
2018-01-12T02:20:46.662Z,87.2
2018-01-12T02:21:49.077Z,87.3
2018-01-12T02:22:51.486Z,87.2
2018-01-12T02:23:54.178Z,87.1
2018-01-12T02:24:56.921Z,87
2018-01-12T02:25:59.332Z,87.3
2018-01-12T02:27:01.733Z,87.3
2018-01-12T02:28:04.139Z,87.4
2018-01-12T02:29:06.543Z,87.3
2018-01-12T02:30:08.949Z,87.2
2018-01-12T02:31:11.368Z,87.1
2018-01-12T02:32:13.758Z,87
2018-01-12T02:33:16.171Z,87
2018-01-12T02:34:18.585Z,87.1
2018-01-12T02:35:20.989Z,87
2018-01-12T02:36:23.978Z,87.2
2018-01-12T02:37:26.390Z,87
2018-01-12T02:38:28.793Z,87
2018-01-12T02:39:31.219Z,87
2018-01-12T02:40:33.910Z,87
2018-01-12T02:41:36.308Z,86.9
2018-01-12T02:42:38.724Z,87
2018-01-12T02:43:41.136Z,87
2018-01-12T02:44:43.544Z,86.9
2018-01-12T02:45:45.946Z,86.8
2018-01-12T02:46:48.366Z,86.7
2018-01-12T02:47:51.061Z,86.6
2018-01-12T02:48:53.467Z,86.7
2018-01-12T02:49:56.447Z,86.9
2018-01-12T02:50:58.855Z,86.9
2018-01-12T02:52:01.286Z,86.8
2018-01-12T02:53:03.712Z,86.6
2018-01-12T02:54:06.122Z,86.5
2018-01-12T02:55:08.537Z,86.5
2018-01-12T02:56:11.521Z,86.5
2018-01-12T02:57:13.927Z,86.6
2018-01-12T02:58:16.613Z,86.6
2018-01-12T02:59:19.305Z,86.7
2018-01-12T03:00:21.727Z,86.8
2018-01-12T03:01:24.141Z,86.6
2018-01-12T03:02:26.832Z,86.7
2018-01-12T03:03:29.230Z,86.7
2018-01-12T03:04:31.638Z,86.6
2018-01-12T03:05:34.051Z,86.5
2018-01-12T03:06:36.461Z,86.4
2018-01-12T03:07:38.873Z,86.5
2018-01-12T03:08:41.289Z,86.7
2018-01-12T03:09:43.699Z,86.7
2018-01-12T03:10:46.113Z,86.6
2018-01-12T03:11:48.524Z,86.6
2018-01-12T03:12:50.936Z,86.6
2018-01-12T03:13:53.340Z,86.6
2018-01-12T03:14:55.765Z,86.6
2018-01-12T03:15:58.178Z,86.6
2018-01-12T03:17:00.584Z,86.6
2018-01-12T03:18:02.996Z,86.6
2018-01-12T03:19:05.413Z,86.7
2018-01-12T03:20:07.817Z,86.6
2018-01-12T03:21:10.229Z,86.5
2018-01-12T03:22:12.659Z,86.5
2018-01-12T03:23:15.058Z,86.5
2018-01-12T03:24:17.765Z,86.7
2018-01-12T03:25:20.166Z,86.6
2018-01-12T03:26:22.580Z,86.6
2018-01-12T03:27:24.990Z,86.7
2018-01-12T03:28:27.684Z,86.7
2018-01-12T03:29:30.092Z,86.7
2018-01-12T03:30:32.513Z,86.7
2018-01-12T03:31:34.910Z,86.7
2018-01-12T03:32:37.320Z,86.9
2018-01-12T03:33:40.006Z,86.9
2018-01-12T03:34:42.416Z,86.8
2018-01-12T03:35:44.826Z,86.7
2018-01-12T03:36:47.529Z,86.7
2018-01-12T03:37:49.934Z,86.8
2018-01-12T03:38:52.354Z,86.7
2018-01-12T03:39:54.753Z,86.5
2018-01-12T03:40:57.175Z,86.5
2018-01-12T03:41:59.580Z,86.5
2018-01-12T03:43:02.585Z,86.6
2018-01-12T03:44:04.989Z,86.5
2018-01-12T03:45:07.402Z,86.5
2018-01-12T03:46:10.097Z,86.5
2018-01-12T03:47:12.797Z,86.5
2018-01-12T03:48:15.204Z,86.5
2018-01-12T03:49:17.612Z,86.4
2018-01-12T03:50:20.314Z,86.4
2018-01-12T03:51:22.719Z,86.4
2018-01-12T03:52:25.127Z,86.4
2018-01-12T03:53:27.826Z,86.4
2018-01-12T03:54:30.232Z,86.4
2018-01-12T03:55:33.226Z,86.5
2018-01-12T03:56:35.638Z,86.5
2018-01-12T03:57:38.033Z,86.4
2018-01-12T03:58:40.442Z,86.4
2018-01-12T03:59:42.857Z,86.5
2018-01-12T04:00:45.572Z,86.6
2018-01-12T04:01:47.985Z,86.7
2018-01-12T04:02:50.388Z,86.5
2018-01-12T04:03:52.792Z,86.7
2018-01-12T04:04:55.216Z,86.8
2018-01-12T04:05:57.914Z,86.9
2018-01-12T04:07:00.609Z,87
2018-01-12T04:08:03.302Z,87
2018-01-12T04:09:05.706Z,87
2018-01-12T04:10:08.412Z,86.8
2018-01-12T04:11:11.104Z,86.7
2018-01-12T04:12:13.505Z,86.6
2018-01-12T04:13:15.917Z,86.7
2018-01-12T04:14:18.330Z,86.7
2018-01-12T04:15:20.739Z,86.7
2018-01-12T04:16:23.149Z,86.6
2018-01-12T04:17:25.556Z,86.4
2018-01-12T04:18:27.967Z,86.3
2018-01-12T04:19:30.373Z,86.4
2018-01-12T04:20:33.125Z,86.4
2018-01-12T04:21:35.522Z,86.5
2018-01-12T04:22:37.937Z,86.7
2018-01-12T04:23:40.353Z,86.9
2018-01-12T04:24:42.766Z,87
2018-01-12T04:25:45.173Z,87
2018-01-12T04:26:47.582Z,86.9
2018-01-12T04:27:49.994Z,86.7
2018-01-12T04:28:52.422Z,86.8
2018-01-12T04:29:54.817Z,86.9
2018-01-12T04:30:57.242Z,86.8
2018-01-12T04:31:59.654Z,86.7
2018-01-12T04:33:02.061Z,86.4
2018-01-12T04:34:04.474Z,86.4
2018-01-12T04:35:06.906Z,86.6
2018-01-12T04:36:09.295Z,86.8
2018-01-12T04:37:11.712Z,86.9
2018-01-12T04:38:14.117Z,86.7
2018-01-12T04:39:16.525Z,86.8
2018-01-12T04:40:18.945Z,86.9
2018-01-12T04:41:21.351Z,86.8
2018-01-12T04:42:24.043Z,86.6
2018-01-12T04:43:26.507Z,86.4
2018-01-12T04:44:28.870Z,86.3
2018-01-12T04:45:31.268Z,86.3
2018-01-12T04:46:33.678Z,86.4
2018-01-12T04:47:36.092Z,86.6
2018-01-12T04:48:38.509Z,86.8
2018-01-12T04:49:41.204Z,86.9
2018-01-12T04:50:43.614Z,87
2018-01-12T04:51:46.018Z,87
2018-01-12T04:52:48.721Z,86.9
2018-01-12T04:53:51.131Z,87
2018-01-12T04:54:53.530Z,87.1
2018-01-12T04:55:55.937Z,87.3
2018-01-12T04:56:58.376Z,87.1
2018-01-12T04:58:00.755Z,87
2018-01-12T04:59:03.167Z,87
2018-01-12T05:00:05.866Z,87.2
2018-01-12T05:01:08.279Z,87.3
2018-01-12T05:02:10.693Z,87.3
2018-01-12T05:03:13.388Z,87.1
2018-01-12T05:04:15.787Z,87
2018-01-12T05:05:18.207Z,87.1
2018-01-12T05:06:20.619Z,87.1
2018-01-12T05:07:23.029Z,87.1
2018-01-12T05:08:25.436Z,87.1
2018-01-12T05:09:27.838Z,87.3
2018-01-12T05:10:30.240Z,87.2
2018-01-12T05:11:32.649Z,87.1
2018-01-12T05:12:35.053Z,87.1
2018-01-12T05:13:37.460Z,87.2
2018-01-12T05:14:39.876Z,87.2
2018-01-12T05:15:42.292Z,87.2
2018-01-12T05:16:44.694Z,87.2
2018-01-12T05:17:47.104Z,87.3
2018-01-12T05:18:49.522Z,87.2
2018-01-12T05:19:51.932Z,87.2
2018-01-12T05:20:54.348Z,87
2018-01-12T05:21:56.795Z,86.8
2018-01-12T05:22:59.162Z,86.9
2018-01-12T05:24:01.578Z,87
2018-01-12T05:25:03.994Z,86.9
2018-01-12T05:26:06.392Z,87.1
2018-01-12T05:27:08.801Z,87.1
2018-01-12T05:28:11.225Z,87
2018-01-12T05:29:13.628Z,87.2
2018-01-12T05:30:16.032Z,87.4
2018-01-12T05:31:18.730Z,87.4
2018-01-12T05:32:21.456Z,87.4
2018-01-12T05:33:23.870Z,87.3
2018-01-12T05:34:26.279Z,87.2
2018-01-12T05:35:28.681Z,87.3
2018-01-12T05:36:31.088Z,87.3
2018-01-12T05:37:33.499Z,87.2
2018-01-12T05:38:36.190Z,87
2018-01-12T05:39:38.597Z,87.1
2018-01-12T05:40:41.006Z,87
2018-01-12T05:41:43.420Z,87
2018-01-12T05:42:45.836Z,87
2018-01-12T05:43:48.250Z,87
2018-01-12T05:44:50.934Z,87
2018-01-12T05:45:53.350Z,87
2018-01-12T05:46:56.050Z,86.9
2018-01-12T05:47:58.450Z,86.9
2018-01-12T05:49:00.863Z,86.7
2018-01-12T05:50:03.278Z,86.8
2018-01-12T05:51:05.959Z,86.9
2018-01-12T05:52:08.383Z,87.1
2018-01-12T05:53:10.794Z,87.1
2018-01-12T05:54:13.193Z,87
2018-01-12T05:55:15.608Z,87.1
2018-01-12T05:56:18.312Z,87
2018-01-12T05:57:21.012Z,86.9
2018-01-12T05:58:23.428Z,87.1
2018-01-12T05:59:26.146Z,87.2
2018-01-12T06:00:28.556Z,87.2
2018-01-12T06:01:30.975Z,87.1
2018-01-12T06:02:33.389Z,87.2
2018-01-12T06:03:35.790Z,87.2
2018-01-12T06:04:38.203Z,87.2
2018-01-12T06:05:40.893Z,87.5
2018-01-12T06:06:43.595Z,87.4
2018-01-12T06:07:46.283Z,87.4
2018-01-12T06:08:48.694Z,87.3
2018-01-12T06:09:51.100Z,87.2
2018-01-12T06:10:53.522Z,87.2
2018-01-12T06:11:56.214Z,87.1
2018-01-12T06:12:58.622Z,87.1
2018-01-12T06:14:01.025Z,87.1
2018-01-12T06:15:03.716Z,87.1
2018-01-12T06:16:06.136Z,87.2
2018-01-12T06:17:08.545Z,87.2
2018-01-12T06:18:10.949Z,87.2
2018-01-12T06:19:13.361Z,87.2
2018-01-12T06:20:15.762Z,87
2018-01-12T06:21:18.176Z,87.3
2018-01-12T06:22:20.868Z,87.5
2018-01-12T06:23:23.273Z,87.5
2018-01-12T06:24:25.690Z,87.3
2018-01-12T06:25:28.110Z,87.4
2018-01-12T06:26:30.510Z,87.4
2018-01-12T06:27:32.924Z,87.5
2018-01-12T06:28:35.338Z,87.4
2018-01-12T06:29:37.743Z,87.5
2018-01-12T06:30:40.443Z,87.6
2018-01-12T06:31:42.846Z,87.6
2018-01-12T06:32:45.251Z,87.6
2018-01-12T06:33:47.659Z,87.5
2018-01-12T06:34:50.061Z,87.5
2018-01-12T06:35:52.468Z,87.6
2018-01-12T06:36:54.890Z,87.6
2018-01-12T06:37:57.301Z,87.5
2018-01-12T06:38:59.715Z,87.5
2018-01-12T06:40:02.127Z,87.5
2018-01-12T06:41:04.535Z,87.6
2018-01-12T06:42:06.940Z,87.6
2018-01-12T06:43:09.344Z,87.6
2018-01-12T06:44:11.759Z,87.6
2018-01-12T06:45:14.165Z,87.4
2018-01-12T06:46:16.579Z,87.6
2018-01-12T06:47:18.988Z,87.6
2018-01-12T06:48:21.404Z,87.6
2018-01-12T06:49:24.092Z,87.7
2018-01-12T06:50:26.794Z,87.8
2018-01-12T06:51:29.196Z,87.6
2018-01-12T06:52:31.606Z,87.6
2018-01-12T06:53:34.032Z,87.6
2018-01-12T06:54:36.422Z,87.6
2018-01-12T06:55:38.827Z,87.6
2018-01-12T06:56:41.245Z,87.6
2018-01-12T06:57:43.638Z,87.5
2018-01-12T06:58:46.058Z,87.5
2018-01-12T06:59:48.462Z,87.6
2018-01-12T07:00:51.147Z,87.5
2018-01-12T07:01:53.553Z,87.5
2018-01-12T07:02:55.961Z,87.6
2018-01-12T07:03:58.370Z,87.7
2018-01-12T07:05:01.060Z,87.6
2018-01-12T07:06:03.468Z,87.6
2018-01-12T07:07:05.879Z,87.8
2018-01-12T07:08:08.306Z,87.7
2018-01-12T07:09:11.308Z,87.7
2018-01-12T07:10:13.724Z,87.8
2018-01-12T07:11:16.126Z,87.7
2018-01-12T07:12:18.541Z,87.8
2018-01-12T07:13:20.945Z,87.8
2018-01-12T07:14:23.352Z,87.6
2018-01-12T07:15:26.047Z,87.8
2018-01-12T07:16:28.461Z,87.9
2018-01-12T07:17:31.142Z,87.9
2018-01-12T07:18:33.554Z,87.7
2018-01-12T07:19:35.955Z,87.7
2018-01-12T07:20:38.362Z,87.6
2018-01-12T07:21:41.057Z,87.6
2018-01-12T07:22:43.467Z,87.4
2018-01-12T07:23:45.866Z,87.4
2018-01-12T07:24:48.567Z,87.5
2018-01-12T07:25:50.972Z,87.5
2018-01-12T07:26:53.380Z,87.5
2018-01-12T07:27:55.821Z,87.6
2018-01-12T07:28:58.197Z,87.7
2018-01-12T07:30:00.604Z,87.5
2018-01-12T07:31:03.015Z,87.4
2018-01-12T07:32:05.416Z,87.4
2018-01-12T07:33:07.836Z,87.4
2018-01-12T07:34:10.258Z,87.5
2018-01-12T07:35:12.657Z,87.7
2018-01-12T07:36:15.067Z,87.8
2018-01-12T07:37:17.477Z,87.9
2018-01-12T07:38:19.890Z,87.9
2018-01-12T07:39:22.299Z,87.8
2018-01-12T07:40:24.709Z,87.7
2018-01-12T07:41:27.104Z,87.7
2018-01-12T07:42:29.516Z,87.7
2018-01-12T07:43:32.201Z,87.8
2018-01-12T07:44:34.611Z,87.7
2018-01-12T07:45:37.018Z,87.6
2018-01-12T07:46:39.441Z,87.6
2018-01-12T07:47:41.861Z,87.6
2018-01-12T07:48:44.250Z,87.7
2018-01-12T07:49:46.658Z,87.8
2018-01-12T07:50:49.069Z,87.8
2018-01-12T07:51:51.754Z,87.9
2018-01-12T07:52:54.162Z,87.8
2018-01-12T07:53:56.568Z,87.6
2018-01-12T07:54:58.972Z,87.6
2018-01-12T07:56:01.392Z,87.6
2018-01-12T07:57:04.369Z,87.7
2018-01-12T07:58:06.776Z,87.6
2018-01-12T07:59:09.181Z,87.6
2018-01-12T08:00:11.580Z,87.6
2018-01-12T08:01:13.994Z,87.7
2018-01-12T08:02:16.418Z,87.7
2018-01-12T08:03:18.819Z,87.7
2018-01-12T08:04:21.237Z,87.6
2018-01-12T08:05:23.646Z,87.6
2018-01-12T08:06:26.335Z,87.5
2018-01-12T08:07:29.045Z,87.4
2018-01-12T08:08:31.456Z,87.4
2018-01-12T08:09:34.152Z,87.4
2018-01-12T08:10:36.562Z,87.4
2018-01-12T08:11:38.972Z,87.4
2018-01-12T08:12:41.371Z,87.5
2018-01-12T08:13:43.786Z,87.3
2018-01-12T08:14:46.203Z,87.1
2018-01-12T08:15:48.613Z,87.1
2018-01-12T08:16:51.310Z,87.4
2018-01-12T08:17:54.006Z,87.5
2018-01-12T08:18:56.412Z,87.5
2018-01-12T08:19:58.831Z,87.5
2018-01-12T08:21:01.800Z,87.5
2018-01-12T08:22:04.208Z,87.4
2018-01-12T08:23:06.618Z,87.1
2018-01-12T08:24:09.041Z,87.2
2018-01-12T08:25:11.448Z,87.2
2018-01-12T08:26:14.148Z,87.2
2018-01-12T08:27:16.555Z,87.2
2018-01-12T08:28:18.966Z,87.2
2018-01-12T08:29:21.374Z,87.2
2018-01-12T08:30:23.790Z,87.1
2018-01-12T08:31:26.188Z,87.2
2018-01-12T08:32:28.604Z,87.1
2018-01-12T08:33:31.016Z,87.2
2018-01-12T08:34:33.430Z,87.4
2018-01-12T08:35:35.822Z,87.6
2018-01-12T08:36:38.232Z,87.6
2018-01-12T08:37:40.632Z,87.5
2018-01-12T08:38:43.056Z,87.6
2018-01-12T08:39:45.463Z,87.7
2018-01-12T08:40:47.867Z,87.7
2018-01-12T08:41:50.562Z,87.7
2018-01-12T08:42:52.970Z,87.6
2018-01-12T08:43:55.377Z,87.7
2018-01-12T08:44:57.787Z,87.9
2018-01-12T08:46:00.507Z,87.7
2018-01-12T08:47:03.198Z,87.6
2018-01-12T08:48:05.875Z,87.6
2018-01-12T08:49:08.876Z,87.7
2018-01-12T08:50:11.278Z,87.7
2018-01-12T08:51:13.694Z,87.5
2018-01-12T08:52:16.111Z,87.4
2018-01-12T08:53:18.515Z,87.5
2018-01-12T08:54:21.211Z,87.5
2018-01-12T08:55:23.629Z,87.6
2018-01-12T08:56:26.042Z,87.7
2018-01-12T08:57:28.445Z,87.8
2018-01-12T08:58:30.865Z,87.9
2018-01-12T08:59:33.275Z,88
2018-01-12T09:00:35.692Z,88
2018-01-12T09:01:38.109Z,87.7
2018-01-12T09:02:40.507Z,87.6
2018-01-12T09:03:43.199Z,87.5
2018-01-12T09:04:45.603Z,87.4
2018-01-12T09:05:48.005Z,87.5
2018-01-12T09:06:50.407Z,87.7
2018-01-12T09:07:52.815Z,87.9
2018-01-12T09:08:55.225Z,87.8
2018-01-12T09:09:57.644Z,87.9
2018-01-12T09:11:00.056Z,87.9
2018-01-12T09:12:02.452Z,87.9
2018-01-12T09:13:04.852Z,88
2018-01-12T09:14:07.273Z,87.9
2018-01-12T09:15:09.680Z,88.1
2018-01-12T09:16:12.074Z,88.1
2018-01-12T09:17:14.485Z,88
2018-01-12T09:18:16.897Z,88.1
2018-01-12T09:19:19.589Z,88.1
2018-01-12T09:20:22.006Z,87.9
2018-01-12T09:21:24.411Z,87.6
2018-01-12T09:22:27.096Z,87.7
2018-01-12T09:23:29.520Z,87.7
2018-01-12T09:24:31.925Z,87.9
2018-01-12T09:25:34.347Z,88
2018-01-12T09:26:36.733Z,87.9
2018-01-12T09:27:39.148Z,87.8
2018-01-12T09:28:41.565Z,87.7
2018-01-12T09:29:43.973Z,87.7
2018-01-12T09:30:46.384Z,87.7
2018-01-12T09:31:48.788Z,87.9
2018-01-12T09:32:51.201Z,88
2018-01-12T09:33:53.613Z,88
2018-01-12T09:34:56.304Z,87.9
2018-01-12T09:35:58.702Z,88
2018-01-12T09:37:01.110Z,87.9
2018-01-12T09:38:03.530Z,87.9
2018-01-12T09:39:06.230Z,88.1
2018-01-12T09:40:08.642Z,88.1
2018-01-12T09:41:11.044Z,87.9
2018-01-12T09:42:13.445Z,88
2018-01-12T09:43:15.853Z,88.1
2018-01-12T09:44:18.260Z,88.3
2018-01-12T09:45:20.668Z,88.4
2018-01-12T09:46:23.088Z,88.2
2018-01-12T09:47:25.481Z,88.3
2018-01-12T09:48:27.904Z,88.4
2018-01-12T09:49:30.313Z,88.3
2018-01-12T09:50:32.724Z,88.4
2018-01-12T09:51:35.412Z,88.4
2018-01-12T09:52:37.823Z,88.4
2018-01-12T09:53:40.220Z,88.3
2018-01-12T09:54:42.636Z,88.1
2018-01-12T09:55:45.047Z,88
2018-01-12T09:56:47.465Z,87.8
2018-01-12T09:57:49.869Z,87.8
2018-01-12T09:58:52.279Z,88
2018-01-12T09:59:54.974Z,88.1
2018-01-12T10:00:57.385Z,88.1
2018-01-12T10:01:59.791Z,88.1
2018-01-12T10:03:02.210Z,88.1
2018-01-12T10:04:04.616Z,88
2018-01-12T10:05:07.028Z,88.1
2018-01-12T10:06:09.430Z,87.9
2018-01-12T10:07:11.836Z,87.9
2018-01-12T10:08:14.241Z,88.1
2018-01-12T10:09:16.652Z,88
2018-01-12T10:10:19.053Z,88.2
2018-01-12T10:11:21.458Z,88.2
2018-01-12T10:12:23.876Z,88
2018-01-12T10:13:26.276Z,87.9
2018-01-12T10:14:28.692Z,87.9
2018-01-12T10:15:31.105Z,87.9
2018-01-12T10:16:33.511Z,87.9
2018-01-12T10:17:35.926Z,88.2
2018-01-12T10:18:38.334Z,88.1
2018-01-12T10:19:40.738Z,87.9
2018-01-12T10:20:43.150Z,88
2018-01-12T10:21:45.563Z,87.7
2018-01-12T10:22:47.969Z,87.7
2018-01-12T10:23:50.372Z,87.9
2018-01-12T10:24:52.778Z,88
2018-01-12T10:25:55.186Z,87.7
2018-01-12T10:26:57.885Z,87.7
2018-01-12T10:28:00.282Z,87.8
2018-01-12T10:29:02.696Z,87.9
2018-01-12T10:30:05.101Z,88
2018-01-12T10:31:07.803Z,88.1
2018-01-12T10:32:10.217Z,88.1
2018-01-12T10:33:12.626Z,88.1
2018-01-12T10:34:15.321Z,87.9
2018-01-12T10:35:17.740Z,87.9
2018-01-12T10:36:20.150Z,87.9
2018-01-12T10:37:22.562Z,88.1
2018-01-12T10:38:24.968Z,88.1
2018-01-12T10:39:27.378Z,88.2
2018-01-12T10:40:29.790Z,88.2
2018-01-12T10:41:32.203Z,88.2
2018-01-12T10:42:35.170Z,88.4
2018-01-12T10:43:37.588Z,88.4
2018-01-12T10:44:39.990Z,88.5
2018-01-12T10:45:42.390Z,88.3
2018-01-12T10:46:44.809Z,88.4
2018-01-12T10:47:47.212Z,88.3
2018-01-12T10:48:49.613Z,88
2018-01-12T10:49:52.020Z,88.1
2018-01-12T10:50:54.423Z,88.2
2018-01-12T10:51:57.115Z,88.3
2018-01-12T10:52:59.531Z,88.3
2018-01-12T10:54:01.922Z,88.2
2018-01-12T10:55:04.332Z,88.1
2018-01-12T10:56:06.735Z,88.1
2018-01-12T10:57:09.151Z,88
2018-01-12T10:58:11.845Z,88.1
2018-01-12T10:59:14.242Z,88.1
2018-01-12T11:00:16.652Z,88.2
2018-01-12T11:01:19.090Z,88.3
2018-01-12T11:02:22.422Z,88.3
2018-01-12T11:03:25.086Z,88.2
2018-01-12T11:04:27.492Z,88
2018-01-12T11:05:29.895Z,87.7
2018-01-12T11:06:32.307Z,87.6
2018-01-12T11:07:35.084Z,88
2018-01-12T11:08:37.392Z,88.3
2018-01-12T11:09:39.806Z,88.4
2018-01-12T11:10:42.229Z,88.3
2018-01-12T11:11:44.643Z,88.4
2018-01-12T11:12:47.049Z,88.2
2018-01-12T11:13:49.462Z,88.3
2018-01-12T11:14:51.871Z,88.1
2018-01-12T11:15:54.567Z,88.1
2018-01-12T11:16:56.980Z,88.2
2018-01-12T11:17:59.373Z,88.4
2018-01-12T11:19:01.782Z,88.3
2018-01-12T11:20:04.204Z,88.1
2018-01-12T11:21:06.616Z,88.1
2018-01-12T11:22:09.319Z,88.2
2018-01-12T11:23:11.726Z,88.1
2018-01-12T11:24:14.125Z,88.1
2018-01-12T11:25:16.552Z,88.2
2018-01-12T11:26:18.961Z,88.1
2018-01-12T11:27:21.362Z,88.2
2018-01-12T11:28:23.777Z,88.2
2018-01-12T11:29:26.187Z,88.3
2018-01-12T11:30:28.587Z,88.3
2018-01-12T11:31:31.011Z,88.3
2018-01-12T11:32:33.410Z,88.4
2018-01-12T11:33:35.814Z,88.2
2018-01-12T11:34:38.529Z,88.1
2018-01-12T11:35:40.927Z,88.2
2018-01-12T11:36:43.329Z,88.1
2018-01-12T11:37:45.744Z,88.2
2018-01-12T11:38:48.440Z,88.2
2018-01-12T11:39:50.845Z,88
2018-01-12T11:40:53.545Z,88
2018-01-12T11:41:55.967Z,88.1
2018-01-12T11:42:58.367Z,88.1
2018-01-12T11:44:00.775Z,88
2018-01-12T11:45:03.187Z,87.9
2018-01-12T11:46:05.591Z,87.9
2018-01-12T11:47:08.000Z,87.9
2018-01-12T11:48:10.413Z,87.7
2018-01-12T11:49:12.868Z,87.5
2018-01-12T11:50:15.227Z,87.3
2018-01-12T11:51:17.655Z,87.3
2018-01-12T11:52:20.059Z,87.2
2018-01-12T11:53:22.471Z,87.5
2018-01-12T11:54:24.877Z,87.6
2018-01-12T11:55:27.283Z,87.5
2018-01-12T11:56:29.988Z,87.5
2018-01-12T11:57:32.678Z,87.4
2018-01-12T11:58:35.072Z,87.4
2018-01-12T11:59:37.483Z,87.4
2018-01-12T12:00:39.898Z,87.4
2018-01-12T12:01:42.306Z,87.2
2018-01-12T12:02:44.718Z,87.3
2018-01-12T12:03:47.120Z,87.5
2018-01-12T12:04:49.531Z,87.4
2018-01-12T12:05:52.005Z,87.4
2018-01-12T12:06:54.361Z,87.3
2018-01-12T12:07:56.779Z,87.1
2018-01-12T12:08:59.186Z,87
2018-01-12T12:10:01.599Z,87
2018-01-12T12:11:03.998Z,87.2
2018-01-12T12:12:06.411Z,87.4
2018-01-12T12:13:08.842Z,87.5
2018-01-12T12:14:11.214Z,87.4
2018-01-12T12:15:13.638Z,87.4
2018-01-12T12:16:16.612Z,87.3
2018-01-12T12:17:19.016Z,87.3
2018-01-12T12:18:21.439Z,87.2
2018-01-12T12:19:23.847Z,87.4
2018-01-12T12:20:26.260Z,87.5
2018-01-12T12:21:28.963Z,87.7
2018-01-12T12:22:31.362Z,87.6
2018-01-12T12:23:33.784Z,87.6
2018-01-12T12:24:36.195Z,87.6
2018-01-12T12:25:38.591Z,87.7
2018-01-12T12:26:41.013Z,87.6
2018-01-12T12:27:43.418Z,87.4
2018-01-12T12:28:45.822Z,87.4
2018-01-12T12:29:48.237Z,87.4
2018-01-12T12:30:50.638Z,87.6
2018-01-12T12:31:53.047Z,87.6
2018-01-12T12:32:55.473Z,87.5
2018-01-12T12:33:57.864Z,87.4
2018-01-12T12:35:00.278Z,87.3
2018-01-12T12:36:02.700Z,87.2
2018-01-12T12:37:05.105Z,87.3
2018-01-12T12:38:07.789Z,87.4
2018-01-12T12:39:10.214Z,87.4
2018-01-12T12:40:12.614Z,87.4
2018-01-12T12:41:15.018Z,87.4
2018-01-12T12:42:17.432Z,87.3
2018-01-12T12:43:19.841Z,87.2
2018-01-12T12:44:22.251Z,87.1
2018-01-12T12:45:24.669Z,87
2018-01-12T12:46:27.076Z,87.1
2018-01-12T12:47:29.782Z,87.3
2018-01-12T12:48:32.200Z,87.3
2018-01-12T12:49:34.611Z,87.3
2018-01-12T12:50:37.021Z,87.1
2018-01-12T12:51:39.425Z,87.1
2018-01-12T12:52:41.837Z,87.2
2018-01-12T12:53:44.255Z,87.1
2018-01-12T12:54:46.653Z,87
2018-01-12T12:55:49.063Z,87
2018-01-12T12:56:51.459Z,87
2018-01-12T12:57:53.878Z,87
2018-01-12T12:58:56.580Z,87.1
2018-01-12T12:59:58.981Z,87
2018-01-12T13:01:01.404Z,86.7
2018-01-12T13:02:03.818Z,87
2018-01-12T13:03:06.229Z,86.9
2018-01-12T13:04:08.649Z,86.9
2018-01-12T13:05:11.335Z,87
2018-01-12T13:06:14.026Z,87
2018-01-12T13:07:17.022Z,87.4
2018-01-12T13:08:19.420Z,87.4
2018-01-12T13:09:21.837Z,87.4
2018-01-12T13:10:24.257Z,87.4
2018-01-12T13:11:26.658Z,87.6
2018-01-12T13:12:29.078Z,87.6
2018-01-12T13:13:31.491Z,87.6
2018-01-12T13:14:33.901Z,87.5
2018-01-12T13:15:36.310Z,87.6
2018-01-12T13:16:38.731Z,87.6
2018-01-12T13:17:41.131Z,87.5
2018-01-12T13:18:43.543Z,87.6
2018-01-12T13:19:46.241Z,87.8
2018-01-12T13:20:48.932Z,87.6
2018-01-12T13:21:51.333Z,87.7
2018-01-12T13:22:53.749Z,87.5
2018-01-12T13:23:56.150Z,87.6
2018-01-12T13:24:58.596Z,87.5
2018-01-12T13:26:00.968Z,87.7
2018-01-12T13:27:03.375Z,87.8
2018-01-12T13:28:05.786Z,87.8
2018-01-12T13:29:08.201Z,87.8
2018-01-12T13:30:10.608Z,87.6
2018-01-12T13:31:13.034Z,87.6
2018-01-12T13:32:15.446Z,87.5
2018-01-12T13:33:17.849Z,87.5
2018-01-12T13:34:20.258Z,87.6
2018-01-12T13:35:22.666Z,87.7
2018-01-12T13:36:25.080Z,87.8
2018-01-12T13:37:27.487Z,87.9
2018-01-12T13:38:29.911Z,87.9
2018-01-12T13:39:32.321Z,87.8
2018-01-12T13:40:34.727Z,87.8
2018-01-12T13:41:37.144Z,87.6
2018-01-12T13:42:39.556Z,87.5
2018-01-12T13:43:41.959Z,87.6
2018-01-12T13:44:44.372Z,87.8
2018-01-12T13:45:46.774Z,88
2018-01-12T13:46:49.174Z,87.9
2018-01-12T13:47:51.882Z,87.9
2018-01-12T13:48:54.285Z,88
2018-01-12T13:49:56.695Z,87.9
2018-01-12T13:50:59.114Z,87.8
2018-01-12T13:52:01.524Z,87.7
2018-01-12T13:53:04.240Z,87.9
2018-01-12T13:54:06.652Z,87.8
2018-01-12T13:55:09.049Z,87.5
2018-01-12T13:56:11.462Z,87.7
2018-01-12T13:57:13.882Z,87.5